DLH087 EDDL-EDDF
Flight info
| Callsign | DLH087 |
|---|---|
| Flight time | 0h 30m |
| Altitude | 21000 |
| Route | COL6T/23L COL T911 ROLIS ROLIS5A |
| Aircraft | A320/M-SDE3FGHIRWY/LB1 |
Departure
| Time | 2026-05-04 18:45 |
|---|---|
| Airport | Düsseldorf Airport (EDDL) |
Arrival
| Time | 2026-05-04 19:15 |
|---|---|
| Airport | Frankfurt Main Airport (EDDF) |
| Time | Latitude | Longitude | Altitude | Speed | Heading |
|---|---|---|---|---|---|
| 2026-05-04 18:01 | 51.28106 | 6.76719 | 128 ft | 0 kts | 276° |
| 2026-05-04 18:03 | 51.28059 | 6.76706 | 124 ft | 0 kts | 275° |
| 2026-05-04 18:32 | 51.28058 | 6.76734 | 124 ft | 2 kts | 262° |
| 2026-05-04 18:32 | 51.28062 | 6.76752 | 128 ft | 3 kts | 208° |
| 2026-05-04 18:33 | 51.28083 | 6.76766 | 125 ft | 2 kts | 218° |
| 2026-05-04 18:33 | 51.28093 | 6.76782 | 126 ft | 2 kts | 270° |
| 2026-05-04 18:33 | 51.28089 | 6.76798 | 128 ft | 2 kts | 357° |
| 2026-05-04 18:33 | 51.28078 | 6.76798 | 126 ft | 2 kts | 12° |
| 2026-05-04 18:34 | 51.28072 | 6.76796 | 127 ft | 0 kts | 17° |
| 2026-05-04 18:36 | 51.28089 | 6.76804 | 127 ft | 6 kts | 17° |
| 2026-05-04 18:36 | 51.28124 | 6.76822 | 129 ft | 5 kts | 17° |
| 2026-05-04 18:36 | 51.28181 | 6.76838 | 129 ft | 10 kts | 7° |
| 2026-05-04 18:37 | 51.28247 | 6.76851 | 129 ft | 9 kts | 6° |
| 2026-05-04 18:37 | 51.28307 | 6.76861 | 129 ft | 11 kts | 6° |
| 2026-05-04 18:37 | 51.28386 | 6.76849 | 126 ft | 11 kts | 328° |
| 2026-05-04 18:37 | 51.28454 | 6.76774 | 126 ft | 11 kts | 339° |
| 2026-05-04 18:38 | 51.28510 | 6.76823 | 126 ft | 9 kts | 47° |
| 2026-05-04 18:38 | 51.28555 | 6.76908 | 126 ft | 10 kts | 50° |
| 2026-05-04 18:38 | 51.28595 | 6.76994 | 126 ft | 12 kts | 54° |
| 2026-05-04 18:38 | 51.28666 | 6.77149 | 127 ft | 21 kts | 52° |
| 2026-05-04 18:39 | 51.28757 | 6.77338 | 124 ft | 22 kts | 52° |
| 2026-05-04 18:39 | 51.28854 | 6.77541 | 127 ft | 24 kts | 53° |
| 2026-05-04 18:39 | 51.28958 | 6.77760 | 127 ft | 25 kts | 52° |
| 2026-05-04 18:39 | 51.29063 | 6.77979 | 128 ft | 17 kts | 52° |
| 2026-05-04 18:40 | 51.29126 | 6.78112 | 133 ft | 12 kts | 53° |
| 2026-05-04 18:40 | 51.29167 | 6.78197 | 136 ft | 7 kts | 48° |
| 2026-05-04 18:40 | 51.29206 | 6.78215 | 137 ft | 5 kts | 2° |
| 2026-05-04 18:40 | 51.29232 | 6.78208 | 137 ft | 3 kts | 345° |
| 2026-05-04 18:41 | 51.29249 | 6.78198 | 137 ft | 2 kts | 337° |
| 2026-05-04 18:41 | 51.29258 | 6.78189 | 137 ft | 1 kts | 326° |
| 2026-05-04 18:41 | 51.29296 | 6.78144 | 139 ft | 11 kts | 323° |
| 2026-05-04 18:41 | 51.29331 | 6.78094 | 140 ft | 3 kts | 291° |
| 2026-05-04 18:42 | 51.29323 | 6.78060 | 139 ft | 4 kts | 235° |
| 2026-05-04 18:42 | 51.29321 | 6.78055 | 139 ft | 0 kts | 232° |
| 2026-05-04 18:42 | 51.29320 | 6.78054 | 139 ft | 0 kts | 232° |
| 2026-05-04 18:44 | 51.29320 | 6.78053 | 139 ft | 1 kts | 232° |
| 2026-05-04 18:44 | 51.29176 | 6.77753 | 132 ft | 72 kts | 232° |
| 2026-05-04 18:44 | 51.28734 | 6.76822 | 124 ft | 135 kts | 232° |
| 2026-05-04 18:45 | 51.28108 | 6.75483 | 496 ft | 155 kts | 231° |
| 2026-05-04 18:45 | 51.27468 | 6.74068 | 1203 ft | 158 kts | 231° |
| 2026-05-04 18:45 | 51.26783 | 6.72583 | 1640 ft | 177 kts | 229° |
| 2026-05-04 18:45 | 51.25997 | 6.70930 | 2021 ft | 198 kts | 230° |
| 2026-05-04 18:46 | 51.25104 | 6.69051 | 2392 ft | 226 kts | 232° |
| 2026-05-04 18:46 | 51.24133 | 6.66909 | 2920 ft | 249 kts | 233° |
| 2026-05-04 18:46 | 51.23033 | 6.64684 | 3695 ft | 258 kts | 221° |
| 2026-05-04 18:46 | 51.21439 | 6.63453 | 4686 ft | 259 kts | 187° |
| 2026-05-04 18:47 | 51.19649 | 6.63736 | 5570 ft | 265 kts | 169° |
| 2026-05-04 18:47 | 51.17831 | 6.64287 | 6551 ft | 265 kts | 168° |
| 2026-05-04 18:47 | 51.16126 | 6.65462 | 7343 ft | 273 kts | 143° |
| 2026-05-04 18:47 | 51.14885 | 6.67762 | 8358 ft | 271 kts | 125° |
| 2026-05-04 18:48 | 51.13941 | 6.70287 | 9607 ft | 263 kts | 124° |
| 2026-05-04 18:48 | 51.13045 | 6.72830 | 10491 ft | 264 kts | 123° |
| 2026-05-04 18:48 | 51.12060 | 6.75292 | 11252 ft | 265 kts | 131° |
| 2026-05-04 18:48 | 51.11304 | 6.76820 | 11759 ft | 266 kts | 133° |
| 2026-05-04 18:49 | 51.10121 | 6.79115 | 12521 ft | 270 kts | 133° |
| 2026-05-04 18:49 | 51.08912 | 6.81429 | 13291 ft | 274 kts | 133° |
| 2026-05-04 18:49 | 51.07681 | 6.83766 | 14018 ft | 278 kts | 133° |
| 2026-05-04 18:49 | 51.06431 | 6.86127 | 14691 ft | 281 kts | 133° |
| 2026-05-04 18:50 | 51.04771 | 6.89249 | 15781 ft | 277 kts | 133° |
| 2026-05-04 18:50 | 51.03928 | 6.90830 | 16279 ft | 278 kts | 133° |
| 2026-05-04 18:50 | 51.02673 | 6.93176 | 16970 ft | 280 kts | 133° |
| 2026-05-04 18:50 | 51.01401 | 6.95543 | 17649 ft | 283 kts | 133° |
| 2026-05-04 18:51 | 51.00101 | 6.97951 | 18318 ft | 287 kts | 133° |
| 2026-05-04 18:51 | 50.98799 | 7.00358 | 18819 ft | 291 kts | 133° |
| 2026-05-04 18:51 | 50.97478 | 7.02802 | 18963 ft | 292 kts | 133° |
| 2026-05-04 18:51 | 50.96159 | 7.05245 | 18996 ft | 291 kts | 133° |
| 2026-05-04 18:52 | 50.94840 | 7.07686 | 19004 ft | 291 kts | 133° |
| 2026-05-04 18:52 | 50.93508 | 7.10164 | 19013 ft | 306 kts | 133° |
| 2026-05-04 18:52 | 50.92058 | 7.12835 | 18997 ft | 331 kts | 136° |
| 2026-05-04 18:52 | 50.90370 | 7.15488 | 18998 ft | 353 kts | 139° |
| 2026-05-04 18:53 | 50.88520 | 7.18213 | 18998 ft | 374 kts | 140° |
| 2026-05-04 18:53 | 50.86535 | 7.21055 | 18998 ft | 392 kts | 140° |
| 2026-05-04 18:53 | 50.84492 | 7.23958 | 18998 ft | 397 kts | 140° |
| 2026-05-04 18:53 | 50.82427 | 7.26899 | 18997 ft | 399 kts | 140° |
| 2026-05-04 18:54 | 50.80378 | 7.29840 | 18996 ft | 399 kts | 140° |
| 2026-05-04 18:54 | 50.78320 | 7.32803 | 18998 ft | 400 kts | 140° |
| 2026-05-04 18:54 | 50.76294 | 7.35723 | 18996 ft | 400 kts | 140° |
| 2026-05-04 18:54 | 50.74242 | 7.38684 | 19005 ft | 400 kts | 140° |
| 2026-05-04 18:55 | 50.72189 | 7.41643 | 19002 ft | 400 kts | 140° |
| 2026-05-04 18:55 | 50.68136 | 7.47465 | 18994 ft | 379 kts | 140° |
| 2026-05-04 18:55 | 50.66233 | 7.50204 | 18920 ft | 364 kts | 140° |
| 2026-05-04 18:56 | 50.64358 | 7.52893 | 18362 ft | 365 kts | 141° |
| 2026-05-04 18:56 | 50.62485 | 7.55565 | 17845 ft | 363 kts | 141° |
| 2026-05-04 18:56 | 50.60613 | 7.58226 | 17339 ft | 361 kts | 141° |
| 2026-05-04 18:56 | 50.58756 | 7.60864 | 16866 ft | 358 kts | 141° |
| 2026-05-04 18:57 | 50.56920 | 7.63480 | 16416 ft | 355 kts | 141° |
| 2026-05-04 18:57 | 50.55096 | 7.66087 | 15964 ft | 353 kts | 141° |
| 2026-05-04 18:57 | 50.53287 | 7.68672 | 15528 ft | 350 kts | 141° |
| 2026-05-04 18:57 | 50.51489 | 7.71231 | 15094 ft | 348 kts | 141° |
| 2026-05-04 18:58 | 50.49702 | 7.73767 | 14657 ft | 345 kts | 141° |
| 2026-05-04 18:58 | 50.47920 | 7.76288 | 14225 ft | 343 kts | 141° |
| 2026-05-04 18:58 | 50.46131 | 7.78804 | 13768 ft | 347 kts | 141° |
| 2026-05-04 18:58 | 50.44349 | 7.81314 | 13390 ft | 342 kts | 141° |
| 2026-05-04 18:59 | 50.42547 | 7.83800 | 12601 ft | 348 kts | 143° |
| 2026-05-04 18:59 | 50.40680 | 7.86197 | 12127 ft | 343 kts | 144° |
| 2026-05-04 18:59 | 50.38817 | 7.88495 | 11576 ft | 340 kts | 145° |
| 2026-05-04 18:59 | 50.36943 | 7.90768 | 11033 ft | 339 kts | 146° |
| 2026-05-04 19:00 | 50.35083 | 7.93017 | 10699 ft | 338 kts | 146° |
| 2026-05-04 19:00 | 50.33225 | 7.95276 | 10550 ft | 338 kts | 145° |
| 2026-05-04 19:00 | 50.31398 | 7.97512 | 10387 ft | 337 kts | 145° |
| 2026-05-04 19:00 | 50.29557 | 7.99778 | 10248 ft | 336 kts | 145° |
| 2026-05-04 19:01 | 50.27725 | 8.02041 | 10106 ft | 335 kts | 145° |
| 2026-05-04 19:01 | 50.25996 | 8.04496 | 9964 ft | 338 kts | 133° |
| 2026-05-04 19:01 | 50.24576 | 8.07435 | 9972 ft | 341 kts | 127° |
| 2026-05-04 19:01 | 50.23595 | 8.10833 | 9801 ft | 348 kts | 107° |
| 2026-05-04 19:02 | 50.23393 | 8.14568 | 9533 ft | 343 kts | 92° |
| 2026-05-04 19:02 | 50.23428 | 8.18230 | 9266 ft | 333 kts | 92° |
| 2026-05-04 19:02 | 50.23469 | 8.21803 | 9032 ft | 323 kts | 92° |
| 2026-05-04 19:02 | 50.23510 | 8.25231 | 8956 ft | 309 kts | 92° |
| 2026-05-04 19:03 | 50.23546 | 8.28522 | 8967 ft | 298 kts | 92° |
| 2026-05-04 19:03 | 50.23570 | 8.31734 | 8964 ft | 295 kts | 92° |
| 2026-05-04 19:03 | 50.23590 | 8.34932 | 8968 ft | 294 kts | 92° |
| 2026-05-04 19:03 | 50.23608 | 8.38119 | 8970 ft | 294 kts | 92° |
| 2026-05-04 19:04 | 50.23627 | 8.41302 | 8972 ft | 294 kts | 92° |
| 2026-05-04 19:04 | 50.23648 | 8.44490 | 8715 ft | 291 kts | 92° |
| 2026-05-04 19:04 | 50.23668 | 8.47640 | 8359 ft | 290 kts | 92° |
| 2026-05-04 19:04 | 50.23687 | 8.50776 | 8026 ft | 288 kts | 92° |
| 2026-05-04 19:05 | 50.23703 | 8.53894 | 7693 ft | 286 kts | 92° |
| 2026-05-04 19:05 | 50.23720 | 8.56993 | 7369 ft | 285 kts | 92° |
| 2026-05-04 19:05 | 50.23737 | 8.60075 | 7048 ft | 283 kts | 92° |
| 2026-05-04 19:05 | 50.23753 | 8.63132 | 6732 ft | 281 kts | 92° |
| 2026-05-04 19:06 | 50.23766 | 8.66176 | 6414 ft | 279 kts | 92° |
| 2026-05-04 19:06 | 50.23776 | 8.69205 | 6083 ft | 278 kts | 92° |
| 2026-05-04 19:06 | 50.23788 | 8.72208 | 5751 ft | 276 kts | 91° |
| 2026-05-04 19:06 | 50.23801 | 8.75195 | 5450 ft | 274 kts | 91° |
| 2026-05-04 19:07 | 50.23813 | 8.78169 | 5198 ft | 273 kts | 91° |
| 2026-05-04 19:07 | 50.23824 | 8.81121 | 5032 ft | 269 kts | 91° |
| 2026-05-04 19:07 | 50.23818 | 8.83949 | 5002 ft | 251 kts | 95° |
| 2026-05-04 19:07 | 50.23559 | 8.86531 | 5007 ft | 239 kts | 108° |
| 2026-05-04 19:08 | 50.22919 | 8.88906 | 5008 ft | 236 kts | 124° |
| 2026-05-04 19:08 | 50.21744 | 8.90611 | 5009 ft | 232 kts | 155° |
| 2026-05-04 19:08 | 50.20249 | 8.91530 | 4764 ft | 230 kts | 162° |
| 2026-05-04 19:08 | 50.18720 | 8.92280 | 4460 ft | 230 kts | 164° |
| 2026-05-04 19:09 | 50.17177 | 8.92976 | 4197 ft | 231 kts | 170° |
| 2026-05-04 19:09 | 50.15597 | 8.92774 | 4036 ft | 240 kts | 203° |
| 2026-05-04 19:09 | 50.14223 | 8.91319 | 4003 ft | 233 kts | 221° |
| 2026-05-04 19:09 | 50.13078 | 8.89654 | 4003 ft | 218 kts | 224° |
| 2026-05-04 19:10 | 50.12020 | 8.88068 | 4011 ft | 203 kts | 224° |
| 2026-05-04 19:10 | 50.11053 | 8.86609 | 4018 ft | 184 kts | 224° |
| 2026-05-04 19:10 | 50.10269 | 8.85096 | 3857 ft | 179 kts | 246° |
| 2026-05-04 19:10 | 50.09832 | 8.83287 | 3648 ft | 178 kts | 250° |
| 2026-05-04 19:11 | 50.09406 | 8.81468 | 3424 ft | 178 kts | 250° |
| 2026-05-04 19:11 | 50.08981 | 8.79658 | 3192 ft | 178 kts | 250° |
| 2026-05-04 19:11 | 50.08557 | 8.77859 | 2946 ft | 177 kts | 250° |
| 2026-05-04 19:11 | 50.08131 | 8.76059 | 2716 ft | 177 kts | 251° |
| 2026-05-04 19:12 | 50.07712 | 8.74285 | 2482 ft | 176 kts | 251° |
| 2026-05-04 19:12 | 50.06934 | 8.70824 | 2013 ft | 161 kts | 260° |
| 2026-05-04 19:12 | 50.06789 | 8.69129 | 1790 ft | 153 kts | 265° |
| 2026-05-04 19:13 | 50.06582 | 8.67518 | 1528 ft | 148 kts | 256° |
| 2026-05-04 19:13 | 50.06235 | 8.66040 | 1353 ft | 145 kts | 250° |
| 2026-05-04 19:13 | 50.05878 | 8.64592 | 1087 ft | 142 kts | 253° |
| 2026-05-04 19:13 | 50.05570 | 8.63155 | 913 ft | 140 kts | 252° |
| 2026-05-04 19:14 | 50.05227 | 8.61755 | 804 ft | 140 kts | 251° |
| 2026-05-04 19:14 | 50.04896 | 8.60319 | 659 ft | 140 kts | 251° |
| 2026-05-04 19:14 | 50.04552 | 8.58887 | 453 ft | 143 kts | 252° |
| 2026-05-04 19:14 | 50.04222 | 8.57510 | 370 ft | 125 kts | 253° |
| 2026-05-04 19:15 | 50.03976 | 8.56448 | 359 ft | 80 kts | 250° |
| 2026-05-04 19:15 | 50.03889 | 8.56024 | 357 ft | 11 kts | 263° |
| 2026-05-04 19:15 | 50.03884 | 8.55892 | 351 ft | 14 kts | 271° |
| 2026-05-04 19:15 | 50.03899 | 8.55728 | 352 ft | 17 kts | 280° |
| 2026-05-04 19:16 | 50.03951 | 8.55622 | 349 ft | 12 kts | 11° |
| 2026-05-04 19:16 | 50.03996 | 8.55714 | 355 ft | 10 kts | 71° |
| 2026-05-04 19:16 | 50.04025 | 8.55850 | 359 ft | 17 kts | 71° |
| 2026-05-04 19:16 | 50.04076 | 8.56068 | 355 ft | 24 kts | 69° |
| 2026-05-04 19:17 | 50.04138 | 8.56322 | 354 ft | 26 kts | 69° |
| 2026-05-04 19:17 | 50.04201 | 8.56586 | 364 ft | 26 kts | 69° |
| 2026-05-04 19:17 | 50.04264 | 8.56855 | 362 ft | 26 kts | 70° |
| 2026-05-04 19:17 | 50.04329 | 8.57127 | 365 ft | 28 kts | 68° |
| 2026-05-04 19:18 | 50.04388 | 8.57374 | 363 ft | 24 kts | 69° |
| 2026-05-04 19:18 | 50.04450 | 8.57626 | 366 ft | 25 kts | 70° |
| 2026-05-04 19:18 | 50.04512 | 8.57885 | 365 ft | 27 kts | 69° |
| 2026-05-04 19:18 | 50.04579 | 8.58169 | 366 ft | 28 kts | 69° |
| 2026-05-04 19:19 | 50.04646 | 8.58446 | 373 ft | 28 kts | 69° |
| 2026-05-04 19:19 | 50.04710 | 8.58709 | 370 ft | 18 kts | 68° |
| 2026-05-04 19:19 | 50.04747 | 8.58853 | 368 ft | 9 kts | 69° |
| 2026-05-04 19:19 | 50.04769 | 8.58872 | 369 ft | 4 kts | 351° |
| 2026-05-04 19:20 | 50.04800 | 8.58853 | 368 ft | 6 kts | 340° |
| 2026-05-04 19:20 | 50.04830 | 8.58837 | 366 ft | 0 kts | 340° |